Time;durP1;ratioP1;P1;durP2;ratioP2;P2;SDS_P1;SDS_P2;PMS_P1;PMS_P2;Temp;Humidity;BMP_temperature;BMP_pressure;BME280_temperature;BME280_humidity;BME280_pressure;Samples;Min_cycle;Max_cycle;Signal;HPM_P1;HPM_P2
2024/02/25 00:01:38;;;;;;;;;;;7.70;59.20;;;;;;4927244;28;20452;-63
2024/02/25 00:04:06;;;;;;;;;;;7.60;59.20;;;;;;4936265;28;19981;-65
2024/02/25 00:06:34;;;;;;;;;;;7.60;59.30;;;;;;4934583;28;19930;-63
2024/02/25 00:09:04;;;;;;;;;;;7.70;59.30;;;;;;4939152;28;19966;-64
2024/02/25 00:11:34;;;;;;;;;;;7.70;59.50;;;;;;4924873;28;20100;-64
2024/02/25 00:14:03;;;;;;;;;;;7.70;59.30;;;;;;4937408;28;19930;-63
2024/02/25 00:16:32;;;;;;;;;;;7.70;59.30;;;;;;4934737;28;19941;-64
2024/02/25 00:19:00;;;;;;;;;;;7.70;59.30;;;;;;4940909;28;20378;-64
2024/02/25 00:21:29;;;;;;;;;;;7.70;59.30;;;;;;4933384;28;19930;-63
2024/02/25 00:23:57;;;;;;;;;;;7.70;59.60;;;;;;4936465;28;19937;-63
2024/02/25 00:26:26;;;;;;;;;;;7.70;59.30;;;;;;4931360;28;19926;-63
2024/02/25 00:28:54;;;;;;;;;;;7.70;59.30;;;;;;4937801;28;20006;-64
2024/02/25 00:31:22;;;;;;;;;;;7.70;59.20;;;;;;4955743;28;19927;-62
2024/02/25 00:33:52;;;;;;;;;;;7.70;59.20;;;;;;4926863;28;20025;-64
2024/02/25 00:36:20;;;;;;;;;;;7.60;59.20;;;;;;4935760;28;20017;-63
2024/02/25 00:38:48;;;;;;;;;;;7.70;59.40;;;;;;4927624;28;19952;-63
2024/02/25 00:41:16;;;;;;;;;;;7.70;59.50;;;;;;4936203;28;19969;-63
2024/02/25 00:43:44;;;;;;;;;;;7.70;59.50;;;;;;4926726;28;19989;-62
2024/02/25 00:46:13;;;;;;;;;;;7.70;59.40;;;;;;4932605;28;19930;-63
2024/02/25 00:48:40;;;;;;;;;;;7.70;59.30;;;;;;4938811;28;19977;-64
2024/02/25 00:51:10;;;;;;;;;;;7.70;59.50;;;;;;4936100;28;19978;-63
2024/02/25 00:53:38;;;;;;;;;;;7.70;59.20;;;;;;4926969;28;19941;-63
2024/02/25 00:56:06;;;;;;;;;;;7.60;59.10;;;;;;4936955;28;20032;-64
2024/02/25 00:58:35;;;;;;;;;;;7.60;59.10;;;;;;4936417;28;19934;-64
2024/02/25 01:01:04;;;;;;;;;;;7.60;59.00;;;;;;4926656;28;19937;-63
2024/02/25 01:03:33;;;;;;;;;;;7.50;59.10;;;;;;4930701;28;19941;-63
2024/02/25 01:06:01;;;;;;;;;;;7.50;59.20;;;;;;4934473;28;19930;-63
2024/02/25 01:08:30;;;;;;;;;;;7.50;59.30;;;;;;4934247;28;20373;-64
2024/02/25 01:10:58;;;;;;;;;;;7.50;59.30;;;;;;4935548;28;20024;-64
2024/02/25 01:13:27;;;;;;;;;;;7.50;59.20;;;;;;4930427;28;19926;-62
2024/02/25 01:15:55;;;;;;;;;;;7.50;59.20;;;;;;4925005;28;19931;-62
2024/02/25 01:18:23;;;;;;;;;;;7.50;59.20;;;;;;4939162;28;20731;-64
2024/02/25 01:20:51;;;;;;;;;;;7.40;59.10;;;;;;4932628;28;19937;-65
2024/02/25 01:23:19;;;;;;;;;;;7.40;59.10;;;;;;4931528;28;19927;-63
2024/02/25 01:25:48;;;;;;;;;;;7.40;59.10;;;;;;4921206;28;19935;-64
2024/02/25 01:28:16;;;;;;;;;;;7.30;59.10;;;;;;4937402;28;19938;-64
2024/02/25 01:30:45;;;;;;;;;;;7.30;59.20;;;;;;4927969;28;19980;-66
2024/02/25 01:33:13;;;;;;;;;;;7.30;59.20;;;;;;4935743;28;19945;-63
2024/02/25 01:35:41;;;;;;;;;;;7.30;59.20;;;;;;4921104;28;19950;-63
2024/02/25 01:38:10;;;;;;;;;;;7.30;59.20;;;;;;4932374;28;20287;-64
2024/02/25 01:40:38;;;;;;;;;;;7.20;59.10;;;;;;4937373;28;20429;-64
2024/02/25 01:43:08;;;;;;;;;;;7.20;59.10;;;;;;4931258;28;19931;-63
2024/02/25 01:45:36;;;;;;;;;;;7.20;59.20;;;;;;4933087;28;19949;-63
2024/02/25 01:48:07;;;;;;;;;;;7.10;59.20;;;;;;4932159;28;19954;-64
2024/02/25 01:50:36;;;;;;;;;;;7.10;59.40;;;;;;4931410;28;20373;-63
2024/02/25 01:53:04;;;;;;;;;;;7.10;59.10;;;;;;4932720;28;19962;-64
2024/02/25 01:55:33;;;;;;;;;;;7.10;59.20;;;;;;4936643;28;20630;-63
2024/02/25 01:58:02;;;;;;;;;;;7.10;59.20;;;;;;4949444;28;20350;-63
2024/02/25 02:00:33;;;;;;;;;;;7.00;59.20;;;;;;4933797;28;19986;-63
2024/02/25 02:03:01;;;;;;;;;;;7.00;59.20;;;;;;4932914;28;19942;-66
2024/02/25 02:05:29;;;;;;;;;;;7.00;59.20;;;;;;4937630;28;20426;-64
2024/02/25 02:07:57;;;;;;;;;;;7.00;59.20;;;;;;4931871;28;19934;-64
2024/02/25 02:10:26;;;;;;;;;;;7.00;59.20;;;;;;4940976;28;20456;-64
2024/02/25 02:12:54;;;;;;;;;;;7.00;59.50;;;;;;4935970;28;20353;-64
2024/02/25 02:15:22;;;;;;;;;;;7.00;59.30;;;;;;4939199;28;19930;-64
2024/02/25 02:17:51;;;;;;;;;;;7.00;59.20;;;;;;4929042;28;19930;-64
2024/02/25 02:20:20;;;;;;;;;;;7.00;59.30;;;;;;4937023;28;19931;-68
2024/02/25 02:22:51;;;;;;;;;;;7.00;59.40;;;;;;4930656;28;19931;-66
2024/02/25 02:25:18;;;;;;;;;;;7.00;59.60;;;;;;4934549;28;19934;-65
2024/02/25 02:27:46;;;;;;;;;;;7.10;59.60;;;;;;4933141;28;19941;-65
2024/02/25 02:30:14;;;;;;;;;;;7.10;59.70;;;;;;4938702;28;20035;-65
2024/02/25 02:32:42;;;;;;;;;;;7.10;59.70;;;;;;4940469;28;20029;-66
2024/02/25 02:35:10;;;;;;;;;;;7.20;59.70;;;;;;4940307;28;19945;-66
2024/02/25 02:37:38;;;;;;;;;;;7.10;59.60;;;;;;4936638;28;20695;-65
2024/02/25 02:40:09;;;;;;;;;;;7.20;59.60;;;;;;4931733;28;19969;-67
2024/02/25 02:42:36;;;;;;;;;;;7.20;59.60;;;;;;4937404;28;19938;-66
2024/02/25 02:45:05;;;;;;;;;;;7.20;59.60;;;;;;4932079;28;19970;-65
2024/02/25 02:47:33;;;;;;;;;;;7.20;59.50;;;;;;4933029;28;19950;-66
2024/02/25 02:50:03;;;;;;;;;;;7.20;59.50;;;;;;4930381;28;19933;-65
2024/02/25 02:52:31;;;;;;;;;;;7.30;59.60;;;;;;4952427;28;20419;-66
2024/02/25 02:54:59;;;;;;;;;;;7.30;59.50;;;;;;4929028;28;19946;-66
2024/02/25 02:57:28;;;;;;;;;;;7.30;59.40;;;;;;4938880;28;19926;-67
2024/02/25 02:59:56;;;;;;;;;;;7.30;59.50;;;;;;4937192;28;19930;-65
2024/02/25 03:02:25;;;;;;;;;;;7.30;59.20;;;;;;4933229;28;19930;-67
2024/02/25 03:04:54;;;;;;;;;;;7.20;59.20;;;;;;4936584;28;20386;-66
2024/02/25 03:07:22;;;;;;;;;;;7.20;59.30;;;;;;4932891;28;19927;-67
2024/02/25 03:09:50;;;;;;;;;;;7.20;59.20;;;;;;4934015;28;20223;-68
2024/02/25 03:12:18;;;;;;;;;;;7.20;59.40;;;;;;4927517;28;20458;-67
2024/02/25 03:14:48;;;;;;;;;;;7.20;59.20;;;;;;4937352;28;19932;-66
2024/02/25 03:17:17;;;;;;;;;;;7.10;59.20;;;;;;4937557;28;20025;-67
2024/02/25 03:19:45;;;;;;;;;;;7.20;59.30;;;;;;4938339;28;20719;-68
2024/02/25 03:22:14;;;;;;;;;;;7.20;59.40;;;;;;4931860;28;19930;-67
2024/02/25 03:24:41;;;;;;;;;;;7.20;59.50;;;;;;4939741;28;19981;-68
2024/02/25 03:27:10;;;;;;;;;;;7.20;59.40;;;;;;4934814;28;19935;-66
2024/02/25 03:29:40;;;;;;;;;;;7.20;59.40;;;;;;4935707;28;20362;-67
2024/02/25 03:32:11;;;;;;;;;;;7.30;59.40;;;;;;4936508;28;20379;-66
2024/02/25 03:34:40;;;;;;;;;;;7.30;59.40;;;;;;4926474;28;20667;-68
2024/02/25 03:37:09;;;;;;;;;;;7.30;59.40;;;;;;4933580;28;20570;-67
2024/02/25 03:39:37;;;;;;;;;;;7.40;59.30;;;;;;4935193;28;19978;-65
2024/02/25 03:42:05;;;;;;;;;;;7.40;59.30;;;;;;4940707;28;19930;-67
2024/02/25 03:44:33;;;;;;;;;;;7.40;59.20;;;;;;4928792;28;19977;-66
2024/02/25 03:47:01;;;;;;;;;;;7.40;59.50;;;;;;4941660;28;19935;-67
2024/02/25 03:49:30;;;;;;;;;;;7.50;59.20;;;;;;4934139;28;20043;-66
2024/02/25 03:51:58;;;;;;;;;;;7.50;59.40;;;;;;4937834;28;19930;-66
2024/02/25 03:54:26;;;;;;;;;;;7.60;59.30;;;;;;4939275;28;20338;-65
2024/02/25 03:56:55;;;;;;;;;;;7.60;59.30;;;;;;4928329;28;20124;-65
2024/02/25 03:59:23;;;;;;;;;;;7.70;59.50;;;;;;4942381;28;20616;-67
2024/02/25 04:01:51;;;;;;;;;;;7.60;59.40;;;;;;4936474;28;19950;-67
2024/02/25 04:04:19;;;;;;;;;;;7.60;59.30;;;;;;4933590;28;19942;-66
2024/02/25 04:06:49;;;;;;;;;;;7.60;59.30;;;;;;4932903;28;19937;-65
2024/02/25 04:09:17;;;;;;;;;;;7.60;59.50;;;;;;4931487;28;19927;-66
2024/02/25 04:11:45;;;;;;;;;;;7.60;59.40;;;;;;4938514;28;20373;-66
2024/02/25 04:14:13;;;;;;;;;;;7.60;59.40;;;;;;4938857;28;19938;-68
2024/02/25 04:16:42;;;;;;;;;;;7.60;59.40;;;;;;4933214;28;20029;-67
2024/02/25 04:19:10;;;;;;;;;;;7.50;59.20;;;;;;4933856;28;19927;-66
2024/02/25 04:21:39;;;;;;;;;;;7.50;59.20;;;;;;4929163;28;19937;-66
2024/02/25 04:24:08;;;;;;;;;;;7.50;59.30;;;;;;4938127;28;20313;-66
2024/02/25 04:26:36;;;;;;;;;;;7.50;59.20;;;;;;4935539;28;20042;-66
2024/02/25 04:29:04;;;;;;;;;;;7.40;59.10;;;;;;4935916;28;19934;-66
2024/02/25 04:31:32;;;;;;;;;;;7.40;59.20;;;;;;4932677;28;20380;-66
2024/02/25 04:34:00;;;;;;;;;;;7.40;59.20;;;;;;4934930;28;19931;-67
2024/02/25 04:36:29;;;;;;;;;;;7.40;59.20;;;;;;4931390;28;20024;-66
2024/02/25 04:38:57;;;;;;;;;;;7.40;59.20;;;;;;4929396;28;20405;-66
2024/02/25 04:41:26;;;;;;;;;;;7.40;59.20;;;;;;4932157;28;19934;-65
2024/02/25 04:43:55;;;;;;;;;;;7.40;59.20;;;;;;4932641;28;20393;-66
2024/02/25 04:46:23;;;;;;;;;;;7.30;59.20;;;;;;4940315;28;19961;-66
2024/02/25 04:48:51;;;;;;;;;;;7.30;59.20;;;;;;4938208;28;19941;-66
2024/02/25 04:51:19;;;;;;;;;;;7.30;59.30;;;;;;4938193;29;19945;-66
2024/02/25 04:53:52;;;;;;;;;;;7.30;59.30;;;;;;4937983;28;20409;-67
2024/02/25 04:56:21;;;;;;;;;;;7.30;59.30;;;;;;4945454;28;19930;-67
2024/02/25 04:58:50;;;;;;;;;;;7.30;59.40;;;;;;4933885;28;19953;-67
2024/02/25 05:01:18;;;;;;;;;;;7.30;59.30;;;;;;4934112;28;19930;-66
2024/02/25 05:03:46;;;;;;;;;;;7.30;59.30;;;;;;4932253;28;19942;-66
2024/02/25 05:06:14;;;;;;;;;;;7.30;59.90;;;;;;4930793;28;20057;-67
2024/02/25 05:08:42;;;;;;;;;;;7.30;59.20;;;;;;4934347;28;20449;-67
2024/02/25 05:11:11;;;;;;;;;;;7.20;59.20;;;;;;4938121;28;19997;-67
2024/02/25 05:13:39;;;;;;;;;;;7.20;59.30;;;;;;4933572;28;19930;-67
2024/02/25 05:16:09;;;;;;;;;;;7.20;59.40;;;;;;4932082;28;20412;-67
2024/02/25 05:18:38;;;;;;;;;;;7.20;59.40;;;;;;4922884;28;19945;-66
2024/02/25 05:21:06;;;;;;;;;;;7.20;59.40;;;;;;4935083;28;19954;-66
2024/02/25 05:23:34;;;;;;;;;;;7.20;59.40;;;;;;4937261;28;20052;-65
2024/02/25 05:26:03;;;;;;;;;;;7.20;59.50;;;;;;4934478;28;20334;-65
2024/02/25 05:28:31;;;;;;;;;;;7.20;59.50;;;;;;4928945;28;19927;-67
2024/02/25 05:30:59;;;;;;;;;;;7.20;59.50;;;;;;4933666;28;19930;-67
2024/02/25 05:33:29;;;;;;;;;;;7.30;59.40;;;;;;4930106;28;20396;-66
2024/02/25 05:35:57;;;;;;;;;;;7.30;59.40;;;;;;4935432;28;19936;-67
2024/02/25 05:38:26;;;;;;;;;;;7.30;59.30;;;;;;4935664;28;20032;-67
2024/02/25 05:40:54;;;;;;;;;;;7.30;59.30;;;;;;4932810;28;20358;-67
2024/02/25 05:43:22;;;;;;;;;;;7.30;59.50;;;;;;4930831;28;19927;-66
2024/02/25 05:45:50;;;;;;;;;;;7.30;59.30;;;;;;4933487;28;19994;-67
2024/02/25 05:48:18;;;;;;;;;;;7.70;60.00;;;;;;4936479;28;20416;-68
2024/02/25 05:50:48;;;;;;;;;;;7.30;59.30;;;;;;4932170;28;20661;-67
2024/02/25 05:53:16;;;;;;;;;;;7.30;59.30;;;;;;4936335;28;20025;-66
2024/02/25 05:55:44;;;;;;;;;;;7.20;59.40;;;;;;4936719;29;20017;-66
2024/02/25 05:58:12;;;;;;;;;;;7.20;59.40;;;;;;4933743;28;19937;-67
2024/02/25 06:00:42;;;;;;;;;;;7.20;59.50;;;;;;4937313;28;20694;-67
2024/02/25 06:03:10;;;;;;;;;;;7.20;59.60;;;;;;4935488;28;20029;-67
2024/02/25 06:05:39;;;;;;;;;;;7.30;59.60;;;;;;4937236;28;19939;-66
2024/02/25 06:08:08;;;;;;;;;;;7.30;59.50;;;;;;4930962;28;20014;-67
2024/02/25 06:10:36;;;;;;;;;;;7.40;59.50;;;;;;4931415;28;19945;-69
2024/02/25 06:13:06;;;;;;;;;;;7.50;59.60;;;;;;4928667;28;20024;-66
2024/02/25 06:15:34;;;;;;;;;;;7.50;59.50;;;;;;4933966;28;19934;-66
2024/02/25 06:18:02;;;;;;;;;;;7.60;59.90;;;;;;4937858;28;19931;-69
2024/02/25 06:20:30;;;;;;;;;;;7.70;59.50;;;;;;4934768;28;20010;-67
2024/02/25 06:22:58;;;;;;;;;;;7.70;59.40;;;;;;4931947;28;19930;-67
2024/02/25 06:25:28;;;;;;;;;;;7.80;59.50;;;;;;4925338;28;19937;-66
2024/02/25 06:27:56;;;;;;;;;;;7.80;59.50;;;;;;4934022;28;20408;-66
2024/02/25 06:30:24;;;;;;;;;;;7.80;59.20;;;;;;4932109;28;19941;-67
2024/02/25 06:32:52;;;;;;;;;;;7.80;59.20;;;;;;4933939;28;19981;-66
2024/02/25 06:35:21;;;;;;;;;;;7.80;59.20;;;;;;4935766;28;19931;-66
2024/02/25 06:37:49;;;;;;;;;;;7.80;59.20;;;;;;4947301;28;20359;-68
2024/02/25 06:40:18;;;;;;;;;;;7.80;59.50;;;;;;4933232;28;19933;-66
2024/02/25 06:42:48;;;;;;;;;;;7.70;59.20;;;;;;4936258;28;19962;-67
2024/02/25 06:45:16;;;;;;;;;;;7.70;59.20;;;;;;4935026;28;20051;-67
2024/02/25 06:47:46;;;;;;;;;;;7.70;59.20;;;;;;4936648;28;19934;-68
2024/02/25 06:50:14;;;;;;;;;;;7.70;59.20;;;;;;4930155;28;19941;-59
2024/02/25 06:52:43;;;;;;;;;;;7.70;59.30;;;;;;4921176;28;20351;-58
2024/02/25 06:55:11;;;;;;;;;;;7.70;59.40;;;;;;4826427;28;19934;-57
2024/02/25 06:57:39;;;;;;;;;;;7.70;59.40;;;;;;4933587;28;19934;-60
2024/02/25 07:00:10;;;;;;;;;;;7.70;59.30;;;;;;4936581;28;20021;-64
2024/02/25 07:02:39;;;;;;;;;;;7.70;59.40;;;;;;4941797;28;19938;-64
2024/02/25 07:05:08;;;;;;;;;;;7.80;59.50;;;;;;4927715;28;19982;-63
2024/02/25 07:07:37;;;;;;;;;;;7.90;59.60;;;;;;4932107;28;19931;-62
2024/02/25 07:10:06;;;;;;;;;;;7.90;59.70;;;;;;4935340;28;19935;-64
2024/02/25 07:12:34;;;;;;;;;;;8.00;59.60;;;;;;4925967;28;20021;-64
2024/02/25 07:15:02;;;;;;;;;;;8.10;59.60;;;;;;4944807;28;20517;-66
2024/02/25 07:17:31;;;;;;;;;;;8.10;59.60;;;;;;4933671;28;19935;-63
2024/02/25 07:20:00;;;;;;;;;;;8.20;59.60;;;;;;4932625;28;19930;-63
2024/02/25 07:22:28;;;;;;;;;;;8.20;59.70;;;;;;4933703;28;20577;-64
2024/02/25 07:24:56;;;;;;;;;;;8.20;59.50;;;;;;4936149;28;19931;-63
2024/02/25 07:27:24;;;;;;;;;;;8.30;59.80;;;;;;4934564;28;19943;-65
2024/02/25 07:29:52;;;;;;;;;;;8.30;59.60;;;;;;4935777;28;19930;-64
2024/02/25 07:32:23;;;;;;;;;;;8.40;59.50;;;;;;4929504;28;19990;-64
2024/02/25 07:34:53;;;;;;;;;;;8.40;59.50;;;;;;4933982;28;20617;-63
2024/02/25 07:37:21;;;;;;;;;;;8.50;59.50;;;;;;4935788;28;20799;-64
2024/02/25 07:39:52;;;;;;;;;;;8.60;59.70;;;;;;4936127;28;19938;-64
2024/02/25 07:42:20;;;;;;;;;;;8.70;59.60;;;;;;4935477;28;19938;-65
2024/02/25 07:44:48;;;;;;;;;;;8.80;59.60;;;;;;4936549;28;19934;-65
2024/02/25 07:47:16;;;;;;;;;;;8.80;59.50;;;;;;4926062;28;19934;-61
2024/02/25 07:49:44;;;;;;;;;;;9.00;59.50;;;;;;4933919;28;19961;-57
2024/02/25 07:52:14;;;;;;;;;;;9.10;60.20;;;;;;4935032;28;20420;-55
2024/02/25 07:54:42;;;;;;;;;;;9.20;59.50;;;;;;4932014;28;19926;-57
2024/02/25 07:57:10;;;;;;;;;;;9.30;59.40;;;;;;4935730;28;19934;-58
2024/02/25 07:59:39;;;;;;;;;;;9.40;59.40;;;;;;4934087;28;20030;-58
2024/02/25 08:02:07;;;;;;;;;;;9.40;59.30;;;;;;4933428;28;19957;-59
2024/02/25 08:04:36;;;;;;;;;;;9.50;59.30;;;;;;4928924;28;20465;-59
2024/02/25 08:07:05;;;;;;;;;;;9.60;59.20;;;;;;4934819;28;19935;-60
2024/02/25 08:09:34;;;;;;;;;;;9.70;59.20;;;;;;4934805;28;20421;-59
2024/02/25 08:12:03;;;;;;;;;;;9.70;59.10;;;;;;4934543;28;19941;-61
2024/02/25 08:14:31;;;;;;;;;;;9.80;59.20;;;;;;4927846;28;20094;-60
2024/02/25 08:16:59;;;;;;;;;;;9.90;59.30;;;;;;4929655;28;20016;-61
2024/02/25 08:19:27;;;;;;;;;;;10.10;59.40;;;;;;4935145;28;20377;-60
2024/02/25 08:21:55;;;;;;;;;;;10.60;60.70;;;;;;4930914;28;20016;-60
2024/02/25 08:24:24;;;;;;;;;;;12.00;63.10;;;;;;4930475;28;19958;-60
2024/02/25 08:26:53;;;;;;;;;;;13.70;61.80;;;;;;4931211;28;19966;-60
2024/02/25 08:29:21;;;;;;;;;;;15.30;60.30;;;;;;4933418;28;19934;-59
2024/02/25 08:31:49;;;;;;;;;;;17.00;59.20;;;;;;4932088;28;20076;-59
2024/02/25 08:34:17;;;;;;;;;;;18.30;58.10;;;;;;4934955;28;20026;-61
2024/02/25 08:36:46;;;;;;;;;;;19.30;56.90;;;;;;4928131;28;19941;-60
2024/02/25 08:39:17;;;;;;;;;;;19.70;55.50;;;;;;4936309;28;20484;-59
2024/02/25 08:41:45;;;;;;;;;;;20.00;55.40;;;;;;4931948;28;19930;-59
2024/02/25 08:44:15;;;;;;;;;;;20.60;55.50;;;;;;4934839;28;19953;-59
2024/02/25 08:46:43;;;;;;;;;;;21.20;54.80;;;;;;4926211;28;19930;-61
2024/02/25 08:49:11;;;;;;;;;;;21.80;54.20;;;;;;4932789;28;19945;-59
2024/02/25 08:51:39;;;;;;;;;;;22.30;53.60;;;;;;4930179;28;20329;-61
2024/02/25 08:54:09;;;;;;;;;;;22.80;53.00;;;;;;4927250;28;19934;-60
2024/02/25 08:56:38;;;;;;;;;;;23.20;52.50;;;;;;4925522;28;19934;-61
2024/02/25 08:59:06;;;;;;;;;;;23.70;52.30;;;;;;4932331;28;19974;-59
2024/02/25 09:01:36;;;;;;;;;;;23.90;51.30;;;;;;4931180;28;19945;-60
2024/02/25 09:04:04;;;;;;;;;;;24.10;51.10;;;;;;4931343;28;20017;-58
2024/02/25 09:06:32;;;;;;;;;;;24.30;50.20;;;;;;4927822;28;19926;-59
2024/02/25 09:09:01;;;;;;;;;;;24.10;49.20;;;;;;4932735;28;19926;-62
2024/02/25 09:11:29;;;;;;;;;;;23.40;49.00;;;;;;4932155;28;20263;-61
2024/02/25 09:13:57;;;;;;;;;;;22.40;48.50;;;;;;4934184;28;19981;-62
2024/02/25 09:16:25;;;;;;;;;;;21.20;48.70;;;;;;4925517;28;19931;-60
2024/02/25 09:18:55;;;;;;;;;;;20.20;50.10;;;;;;4932584;28;20414;-59
2024/02/25 09:21:23;;;;;;;;;;;19.70;51.70;;;;;;4931893;28;20885;-59
2024/02/25 09:23:51;;;;;;;;;;;19.40;52.30;;;;;;4931956;28;20639;-57
2024/02/25 09:26:19;;;;;;;;;;;19.20;52.40;;;;;;4933305;28;20021;-59
2024/02/25 09:28:59;;;;;;;;;;;19.40;53.70;;;;;;4932182;28;20025;-59
2024/02/25 09:31:27;;;;;;;;;;;19.80;52.90;;;;;;4929538;28;19949;-61
2024/02/25 09:33:58;;;;;;;;;;;19.80;52.00;;;;;;4933518;28;19938;-56
2024/02/25 09:36:27;;;;;;;;;;;19.70;51.30;;;;;;4923313;28;19930;-59
2024/02/25 09:38:56;;;;;;;;;;;19.10;50.60;;;;;;4931994;28;19930;-60
2024/02/25 09:41:26;;;;;;;;;;;18.90;51.80;;;;;;4931602;28;19937;-60
2024/02/25 09:43:55;;;;;;;;;;;19.20;53.20;;;;;;4933739;28;19935;-60
2024/02/25 09:46:25;;;;;;;;;;;19.80;53.10;;;;;;4926502;28;19937;-57
2024/02/25 09:48:54;;;;;;;;;;;20.30;52.80;;;;;;4930968;28;19945;-57
2024/02/25 09:51:24;;;;;;;;;;;20.80;52.50;;;;;;4932769;28;19927;-55
2024/02/25 09:53:53;;;;;;;;;;;21.50;52.10;;;;;;4931893;28;20025;-58
2024/02/25 09:56:21;;;;;;;;;;;22.40;52.30;;;;;;4927413;28;20959;-57
2024/02/25 09:58:50;;;;;;;;;;;23.40;51.80;;;;;;4929183;28;19977;-58
2024/02/25 10:01:18;;;;;;;;;;;24.50;51.50;;;;;;4930006;28;20456;-59
2024/02/25 10:03:46;;;;;;;;;;;25.90;51.10;;;;;;4932695;28;19933;-59
2024/02/25 10:06:14;;;;;;;;;;;27.00;49.60;;;;;;4934232;28;19934;-60
2024/02/25 10:08:48;;;;;;;;;;;27.70;49.10;;;;;;4925767;28;19931;-57
2024/02/25 10:11:16;;;;;;;;;;;28.70;49.10;;;;;;4933897;28;19957;-60
2024/02/25 10:13:45;;;;;;;;;;;29.20;47.40;;;;;;4937049;28;19989;-59
2024/02/25 10:16:17;;;;;;;;;;;28.70;46.90;;;;;;4933226;28;19934;-55
2024/02/25 10:18:53;;;;;;;;;;;28.00;47.00;;;;;;4928710;28;20029;-54
2024/02/25 10:21:21;;;;;;;;;;;27.20;46.90;;;;;;4934514;28;20267;-58
2024/02/25 10:23:54;;;;;;;;;;;26.30;47.50;;;;;;4936601;28;19926;-53
2024/02/25 10:26:24;;;;;;;;;;;26.00;48.40;;;;;;4931513;28;19954;-56
2024/02/25 10:29:02;;;;;;;;;;;25.90;48.20;;;;;;4935565;28;20029;-57
2024/02/25 10:31:30;;;;;;;;;;;25.70;48.20;;;;;;4938550;28;19926;-55
2024/02/25 10:33:58;;;;;;;;;;;25.60;48.10;;;;;;4939564;28;19937;-58
2024/02/25 10:36:27;;;;;;;;;;;25.70;49.00;;;;;;4932627;28;20001;-57
2024/02/25 10:38:57;;;;;;;;;;;26.60;49.20;;;;;;4939945;28;20482;-56
2024/02/25 10:41:26;;;;;;;;;;;27.40;48.40;;;;;;4934681;28;20342;-55
2024/02/25 10:43:58;;;;;;;;;;;28.40;47.70;;;;;;4936980;28;19927;-58
2024/02/25 10:46:30;;;;;;;;;;;29.00;46.90;;;;;;4929391;28;19960;-55
2024/02/25 10:48:58;;;;;;;;;;;29.50;46.10;;;;;;4941754;28;19948;-58
2024/02/25 10:51:27;;;;;;;;;;;30.00;45.70;;;;;;4940508;28;19931;-57
2024/02/25 10:53:57;;;;;;;;;;;30.50;45.20;;;;;;4935517;28;19930;-55
2024/02/25 10:56:25;;;;;;;;;;;30.90;45.10;;;;;;4932862;28;19969;-58
2024/02/25 10:58:54;;;;;;;;;;;31.00;44.20;;;;;;4950470;28;20313;-56
2024/02/25 11:01:24;;;;;;;;;;;30.80;43.50;;;;;;4927097;29;19938;-57
2024/02/25 11:03:52;;;;;;;;;;;30.50;43.60;;;;;;4934250;28;20018;-60
2024/02/25 11:06:31;;;;;;;;;;;30.20;43.70;;;;;;4936345;28;19926;-55
2024/02/25 11:09:09;;;;;;;;;;;30.00;43.90;;;;;;4928992;28;19931;-56
2024/02/25 11:11:38;;;;;;;;;;;29.60;43.70;;;;;;4931396;28;19938;-57
2024/02/25 11:14:06;;;;;;;;;;;29.30;44.00;;;;;;4936110;28;19969;-55
2024/02/25 11:16:39;;;;;;;;;;;29.00;44.50;;;;;;4925669;28;20183;-54
2024/02/25 11:19:08;;;;;;;;;;;28.20;44.50;;;;;;4936757;28;20061;-57
2024/02/25 11:21:37;;;;;;;;;;;27.50;44.90;;;;;;4934953;28;19937;-58
2024/02/25 11:24:11;;;;;;;;;;;26.70;45.30;;;;;;4940050;28;19934;-59
2024/02/25 11:26:42;;;;;;;;;;;25.80;45.80;;;;;;4930933;28;20378;-59
2024/02/25 11:29:14;;;;;;;;;;;24.80;46.70;;;;;;4932553;28;20417;-60
2024/02/25 11:31:49;;;;;;;;;;;23.80;47.60;;;;;;4937595;28;19953;-63
2024/02/25 11:34:19;;;;;;;;;;;22.70;48.40;;;;;;4932440;28;20019;-65
2024/02/25 11:36:51;;;;;;;;;;;21.60;49.70;;;;;;4928937;28;19930;-66
2024/02/25 11:39:26;;;;;;;;;;;20.50;50.50;;;;;;4938250;28;19927;-63
2024/02/25 11:41:57;;;;;;;;;;;19.60;51.50;;;;;;4954413;28;20298;-64
2024/02/25 11:44:25;;;;;;;;;;;18.90;52.40;;;;;;4932881;28;19931;-64
2024/02/25 11:46:57;;;;;;;;;;;18.30;53.10;;;;;;4929894;28;20133;-65
2024/02/25 11:49:26;;;;;;;;;;;17.90;53.70;;;;;;4931706;28;19927;-65
2024/02/25 11:51:55;;;;;;;;;;;17.50;54.20;;;;;;4935035;28;19934;-64
2024/02/25 11:54:23;;;;;;;;;;;17.20;54.60;;;;;;4937274;28;19976;-64
2024/02/25 11:56:52;;;;;;;;;;;16.90;54.70;;;;;;4930384;28;19930;-64
2024/02/25 11:59:22;;;;;;;;;;;16.70;54.70;;;;;;4932269;28;20289;-61
2024/02/25 12:01:51;;;;;;;;;;;16.50;55.00;;;;;;4934739;28;20041;-61
2024/02/25 12:04:19;;;;;;;;;;;16.40;55.50;;;;;;4932009;28;19976;-64
2024/02/25 12:06:47;;;;;;;;;;;16.40;55.50;;;;;;4686031;28;5518971;-65
2024/02/25 12:19:28;;;;;;;;;;;16.40;55.60;;;;;;5142669;27;19919;-68
2024/02/25 12:21:59;;;;;;;;;;;16.30;55.70;;;;;;5106578;27;19931;-67
2024/02/25 12:24:28;;;;;;;;;;;16.20;55.70;;;;;;5115642;27;19934;-68
2024/02/25 12:26:58;;;;;;;;;;;16.20;55.50;;;;;;5119605;27;19967;-68
2024/02/25 12:29:28;;;;;;;;;;;16.20;55.50;;;;;;5129002;27;19934;-64
2024/02/25 12:31:57;;;;;;;;;;;16.20;55.80;;;;;;5123266;27;19928;-66
2024/02/25 12:34:30;;;;;;;;;;;16.30;55.70;;;;;;5129119;27;19923;-63
2024/02/25 12:36:59;;;;;;;;;;;16.40;55.80;;;;;;5126306;27;20381;-63
2024/02/25 12:39:27;;;;;;;;;;;16.40;55.70;;;;;;5111394;27;19931;-65
2024/02/25 12:41:58;;;;;;;;;;;16.50;55.60;;;;;;5109453;27;20339;-63
2024/02/25 12:44:28;;;;;;;;;;;16.50;55.70;;;;;;5099753;27;19934;-64
2024/02/25 12:46:57;;;;;;;;;;;16.60;55.70;;;;;;5108469;27;19924;-63
2024/02/25 12:49:28;;;;;;;;;;;16.70;55.70;;;;;;5107033;27;20187;-65
2024/02/25 12:51:57;;;;;;;;;;;16.80;55.60;;;;;;5108940;27;19927;-66
2024/02/25 12:54:27;;;;;;;;;;;16.90;55.40;;;;;;5135464;27;19927;-64
2024/02/25 12:56:58;;;;;;;;;;;16.80;55.00;;;;;;5126412;27;19924;-65
2024/02/25 12:59:26;;;;;;;;;;;16.80;55.10;;;;;;5125408;27;20046;-65
2024/02/25 13:01:55;;;;;;;;;;;16.80;55.00;;;;;;5118837;27;19930;-65
2024/02/25 13:04:25;;;;;;;;;;;16.80;55.20;;;;;;5123783;27;19971;-65
2024/02/25 13:06:55;;;;;;;;;;;16.80;55.30;;;;;;5117436;27;20412;-65
2024/02/25 13:09:27;;;;;;;;;;;16.90;55.30;;;;;;5100768;27;22356;-63
2024/02/25 13:11:55;;;;;;;;;;;17.00;55.30;;;;;;5090227;27;20019;-64
2024/02/25 13:14:23;;;;;;;;;;;17.00;55.30;;;;;;5094542;27;20386;-64
2024/02/25 13:16:52;;;;;;;;;;;17.10;55.30;;;;;;5095101;27;19932;-64
2024/02/25 13:19:20;;;;;;;;;;;17.20;55.40;;;;;;5095057;27;20283;-63
2024/02/25 13:21:48;;;;;;;;;;;17.30;55.20;;;;;;5090057;27;20432;-63
2024/02/25 13:24:18;;;;;;;;;;;17.40;55.30;;;;;;5100234;27;19930;-64
2024/02/25 13:26:48;;;;;;;;;;;17.50;55.90;;;;;;5095313;27;20413;-63
2024/02/25 13:29:16;;;;;;;;;;;17.50;55.10;;;;;;5092784;27;19951;-65
2024/02/25 13:31:44;;;;;;;;;;;17.60;55.00;;;;;;5085653;28;20010;-64
2024/02/25 13:34:13;;;;;;;;;;;17.60;54.70;;;;;;5073265;28;19928;-64
2024/02/25 13:36:42;;;;;;;;;;;17.50;54.70;;;;;;5078720;28;20431;-63
2024/02/25 13:39:11;;;;;;;;;;;17.50;54.80;;;;;;5082692;28;19924;-64
2024/02/25 13:41:42;;;;;;;;;;;17.50;54.80;;;;;;5082593;28;19938;-59
2024/02/25 13:44:10;;;;;;;;;;;17.60;54.90;;;;;;5077938;28;19923;-60
2024/02/25 13:46:38;;;;;;;;;;;17.60;55.00;;;;;;5084883;28;19927;-60
2024/02/25 13:49:13;;;;;;;;;;;17.70;55.00;;;;;;5066629;28;19925;-63
2024/02/25 13:51:44;;;;;;;;;;;17.80;55.00;;;;;;5082790;28;20505;-61
2024/02/25 13:54:12;;;;;;;;;;;17.80;55.00;;;;;;5086846;28;19927;-60
2024/02/25 13:56:43;;;;;;;;;;;17.90;54.90;;;;;;5077373;28;19967;-61
2024/02/25 13:59:12;;;;;;;;;;;17.90;54.70;;;;;;5085384;27;19935;-61
2024/02/25 14:01:40;;;;;;;;;;;17.80;54.60;;;;;;5090947;28;19953;-65
2024/02/25 14:04:09;;;;;;;;;;;17.80;54.70;;;;;;5067567;28;19932;-62
2024/02/25 14:06:38;;;;;;;;;;;17.70;54.80;;;;;;5083662;28;19932;-61
2024/02/25 14:09:08;;;;;;;;;;;17.70;54.70;;;;;;5074507;28;19924;-61
2024/02/25 14:11:36;;;;;;;;;;;17.70;54.80;;;;;;5081954;28;20401;-62
2024/02/25 14:14:07;;;;;;;;;;;17.70;54.80;;;;;;5075709;28;19962;-60
2024/02/25 14:16:35;;;;;;;;;;;17.60;54.70;;;;;;5081766;28;20500;-59
2024/02/25 14:19:03;;;;;;;;;;;17.60;54.90;;;;;;5083360;28;20013;-60
2024/02/25 14:21:35;;;;;;;;;;;17.60;54.80;;;;;;5078492;28;20055;-58
2024/02/25 14:24:05;;;;;;;;;;;17.60;54.80;;;;;;5071961;28;20031;-59
2024/02/25 14:26:35;;;;;;;;;;;17.60;54.80;;;;;;5085657;27;19928;-59
2024/02/25 14:29:05;;;;;;;;;;;17.60;54.80;;;;;;5079369;28;20405;-61
2024/02/25 14:31:35;;;;;;;;;;;17.60;54.70;;;;;;5076422;28;19928;-58
2024/02/25 14:34:04;;;;;;;;;;;17.50;54.80;;;;;;5078347;28;19943;-53
2024/02/25 14:36:33;;;;;;;;;;;17.50;54.80;;;;;;5080528;28;20546;-55
2024/02/25 14:39:01;;;;;;;;;;;17.50;54.80;;;;;;5079747;28;20020;-57
2024/02/25 14:41:30;;;;;;;;;;;17.50;54.80;;;;;;5086434;28;20007;-54
2024/02/25 14:43:58;;;;;;;;;;;17.40;54.60;;;;;;5079774;28;19976;-58